sensor_id;sensor_type;location;lat;lon;timestamp;pressure;altitude;pressure_sealevel;temperature;humidity
62462;BME280;48511;38.664;-9.202;2022-12-11T00:01:47;50063.59;;;-146.63;96.29
62462;BME280;48511;38.664;-9.202;2022-12-11T00:03:48;50103.06;;;-146.63;96.44
62462;BME280;48511;38.664;-9.202;2022-12-11T00:05:49;50063.59;;;-146.63;96.48
62462;BME280;48511;38.664;-9.202;2022-12-11T00:07:49;50059.63;;;-146.63;96.56
62462;BME280;48511;38.664;-9.202;2022-12-11T00:09:50;50110.94;;;-146.63;96.59
62462;BME280;48511;38.664;-9.202;2022-12-11T00:11:51;50091.22;;;-146.63;96.70
62462;BME280;48511;38.664;-9.202;2022-12-11T00:13:51;50063.59;;;-146.63;96.90
62462;BME280;48511;38.664;-9.202;2022-12-11T00:15:52;50083.31;;;-146.63;97.03
62462;BME280;48511;38.664;-9.202;2022-12-11T00:17:53;50071.47;;;-146.63;97.08
62462;BME280;48511;38.664;-9.202;2022-12-11T00:19:54;50075.44;;;-146.63;97.27
62462;BME280;48511;38.664;-9.202;2022-12-11T00:21:55;50099.09;;;-146.63;97.50
62462;BME280;48511;38.664;-9.202;2022-12-11T00:23:56;50107.00;;;-146.63;97.47
62462;BME280;48511;38.664;-9.202;2022-12-11T00:25:56;50095.16;;;-146.63;97.42
62462;BME280;48511;38.664;-9.202;2022-12-11T00:27:57;50071.47;;;-146.63;97.74
62462;BME280;48511;38.664;-9.202;2022-12-11T00:29:58;50085.28;;;-146.63;97.69
62462;BME280;48511;38.664;-9.202;2022-12-11T00:31:58;50024.09;;;-146.63;97.70
62462;BME280;48511;38.664;-9.202;2022-12-11T00:34:02;50063.59;;;-146.63;97.82
62462;BME280;48511;38.664;-9.202;2022-12-11T00:36:08;50073.44;;;-146.63;97.74
62462;BME280;48511;38.664;-9.202;2022-12-11T00:38:15;50055.69;;;-146.63;97.94
62462;BME280;48511;38.664;-9.202;2022-12-11T00:40:16;50055.69;;;-146.63;97.88
62462;BME280;48511;38.664;-9.202;2022-12-11T00:42:16;50063.59;;;-146.63;97.93
62462;BME280;48511;38.664;-9.202;2022-12-11T00:44:17;50081.34;;;-146.63;98.09
62462;BME280;48511;38.664;-9.202;2022-12-11T00:46:18;50091.22;;;-146.63;98.26
62462;BME280;48511;38.664;-9.202;2022-12-11T00:48:18;50103.06;;;-146.63;98.48
62462;BME280;48511;38.664;-9.202;2022-12-11T00:50:19;50055.69;;;-146.63;98.54
62462;BME280;48511;38.664;-9.202;2022-12-11T00:52:20;50075.44;;;-146.63;98.50
62462;BME280;48511;38.664;-9.202;2022-12-11T00:54:21;50091.22;;;-146.63;99.07
62462;BME280;48511;38.664;-9.202;2022-12-11T00:56:22;50057.66;;;-146.63;99.13
62462;BME280;48511;38.664;-9.202;2022-12-11T00:58:23;50087.28;;;-146.63;99.05
62462;BME280;48511;38.664;-9.202;2022-12-11T01:00:25;50051.75;;;-146.63;99.36
62462;BME280;48511;38.664;-9.202;2022-12-11T01:02:25;50085.28;;;-146.63;99.33
62462;BME280;48511;38.664;-9.202;2022-12-11T01:04:26;50091.22;;;-146.63;99.46
62462;BME280;48511;38.664;-9.202;2022-12-11T01:06:27;50075.44;;;-146.63;99.52
62462;BME280;48511;38.664;-9.202;2022-12-11T01:08:29;50067.53;;;-146.63;99.68
62462;BME280;48511;38.664;-9.202;2022-12-11T01:10:30;50051.75;;;-146.63;100.00
62462;BME280;48511;38.664;-9.202;2022-12-11T01:12:31;50083.31;;;-146.63;100.00
62462;BME280;48511;38.664;-9.202;2022-12-11T01:14:32;50057.66;;;-146.63;100.00
62462;BME280;48511;38.664;-9.202;2022-12-11T01:16:33;50134.63;;;-146.63;100.00
62462;BME280;48511;38.664;-9.202;2022-12-11T01:18:33;50128.72;;;-146.63;100.00
62462;BME280;48511;38.664;-9.202;2022-12-11T01:20:36;50075.44;;;-146.63;100.00
62462;BME280;48511;38.664;-9.202;2022-12-11T01:22:38;50107.00;;;-146.63;100.00
62462;BME280;48511;38.664;-9.202;2022-12-11T01:24:39;50095.16;;;-146.63;100.00
62462;BME280;48511;38.664;-9.202;2022-12-11T01:26:39;50087.28;;;-146.63;100.00
62462;BME280;48511;38.664;-9.202;2022-12-11T01:28:40;50071.47;;;-146.63;100.00
62462;BME280;48511;38.664;-9.202;2022-12-11T01:30:41;50071.47;;;-146.63;100.00
62462;BME280;48511;38.664;-9.202;2022-12-11T01:32:43;50095.16;;;-146.63;100.00
62462;BME280;48511;38.664;-9.202;2022-12-11T01:34:44;50087.28;;;-146.63;100.00
62462;BME280;48511;38.664;-9.202;2022-12-11T01:36:44;50085.28;;;-146.63;100.00
62462;BME280;48511;38.664;-9.202;2022-12-11T01:38:46;50069.50;;;-146.63;100.00
62462;BME280;48511;38.664;-9.202;2022-12-11T01:40:48;50103.06;;;-146.63;100.00
62462;BME280;48511;38.664;-9.202;2022-12-11T01:42:50;50085.28;;;-146.63;100.00
62462;BME280;48511;38.664;-9.202;2022-12-11T01:45:24;50065.56;;;-146.63;100.00
62462;BME280;48511;38.664;-9.202;2022-12-11T01:47:25;50105.03;;;-146.63;100.00
62462;BME280;48511;38.664;-9.202;2022-12-11T01:49:27;50103.06;;;-146.63;100.00
62462;BME280;48511;38.664;-9.202;2022-12-11T01:51:30;50057.66;;;-146.63;100.00
62462;BME280;48511;38.664;-9.202;2022-12-11T01:53:35;50095.16;;;-146.63;100.00
62462;BME280;48511;38.664;-9.202;2022-12-11T01:55:38;50091.22;;;-146.63;100.00
62462;BME280;48511;38.664;-9.202;2022-12-11T01:57:42;50099.09;;;-146.63;99.92
62462;BME280;48511;38.664;-9.202;2022-12-11T01:59:45;50122.78;;;-146.63;99.99
62462;BME280;48511;38.664;-9.202;2022-12-11T02:02:05;50069.50;;;-146.63;100.00
62462;BME280;48511;38.664;-9.202;2022-12-11T02:04:07;50134.63;;;-146.63;99.90
62462;BME280;48511;38.664;-9.202;2022-12-11T02:06:31;50075.44;;;-146.63;99.95
62462;BME280;48511;38.664;-9.202;2022-12-11T02:08:33;50095.16;;;-146.63;99.90
62462;BME280;48511;38.664;-9.202;2022-12-11T02:10:48;50120.81;;;-146.63;99.68
62462;BME280;48511;38.664;-9.202;2022-12-11T02:13:03;50103.06;;;-146.63;99.54
62462;BME280;48511;38.664;-9.202;2022-12-11T02:15:32;50095.16;;;-146.63;99.55
62462;BME280;48511;38.664;-9.202;2022-12-11T02:17:40;50075.44;;;-146.63;99.21
62462;BME280;48511;38.664;-9.202;2022-12-11T02:22:08;50114.91;;;-146.63;99.24
62462;BME280;48511;38.664;-9.202;2022-12-11T02:24:32;50112.94;;;-146.63;98.78
62462;BME280;48511;38.664;-9.202;2022-12-11T02:27:04;50095.16;;;-146.63;98.71
62462;BME280;48511;38.664;-9.202;2022-12-11T02:29:51;50081.34;;;-146.63;98.10
62462;BME280;48511;38.664;-9.202;2022-12-11T02:31:49;50103.06;;;-146.63;97.57
62462;BME280;48511;38.664;-9.202;2022-12-11T02:34:12;50053.72;;;-146.63;96.65
62462;BME280;48511;38.664;-9.202;2022-12-11T02:36:19;50067.53;;;-146.63;96.07
62462;BME280;48511;38.664;-9.202;2022-12-11T02:38:25;50071.47;;;-146.63;95.59
62462;BME280;48511;38.664;-9.202;2022-12-11T02:40:31;50126.75;;;-146.63;95.63
62462;BME280;48511;38.664;-9.202;2022-12-11T02:42:36;50103.06;;;-146.63;95.73
62462;BME280;48511;38.664;-9.202;2022-12-11T02:44:39;50099.09;;;-146.63;95.93
62462;BME280;48511;38.664;-9.202;2022-12-11T02:46:42;50114.91;;;-146.63;95.85
62462;BME280;48511;38.664;-9.202;2022-12-11T02:48:44;50091.22;;;-146.63;96.04
62462;BME280;48511;38.664;-9.202;2022-12-11T02:50:51;50085.28;;;-146.63;96.03
62462;BME280;48511;38.664;-9.202;2022-12-11T02:52:55;50051.75;;;-146.63;95.67
62462;BME280;48511;38.664;-9.202;2022-12-11T02:54:58;50099.09;;;-146.63;95.51
62462;BME280;48511;38.664;-9.202;2022-12-11T02:57:22;50079.38;;;-146.63;95.38
62462;BME280;48511;38.664;-9.202;2022-12-11T02:59:29;50075.44;;;-146.63;95.36
62462;BME280;48511;38.664;-9.202;2022-12-11T03:01:32;50110.94;;;-146.63;95.30
62462;BME280;48511;38.664;-9.202;2022-12-11T03:03:33;50103.06;;;-146.63;95.18
62462;BME280;48511;38.664;-9.202;2022-12-11T03:05:34;50099.09;;;-146.63;95.06
62462;BME280;48511;38.664;-9.202;2022-12-11T03:07:37;50099.09;;;-146.63;95.32
62462;BME280;48511;38.664;-9.202;2022-12-11T03:09:39;50107.00;;;-146.63;95.36
62462;BME280;48511;38.664;-9.202;2022-12-11T03:11:41;50103.06;;;-146.63;95.59
62462;BME280;48511;38.664;-9.202;2022-12-11T03:13:41;50118.84;;;-146.63;95.11
62462;BME280;48511;38.664;-9.202;2022-12-11T03:16:20;50075.44;;;-146.63;95.25
62462;BME280;48511;38.664;-9.202;2022-12-11T03:21:04;50103.06;;;-146.63;95.27
62462;BME280;48511;38.664;-9.202;2022-12-11T03:23:33;50114.91;;;-146.63;95.00
62462;BME280;48511;38.664;-9.202;2022-12-11T03:25:57;50091.22;;;-146.63;95.14
62462;BME280;48511;38.664;-9.202;2022-12-11T03:28:10;50099.09;;;-146.63;95.42
62462;BME280;48511;38.664;-9.202;2022-12-11T03:30:17;50103.06;;;-146.63;95.36
62462;BME280;48511;38.664;-9.202;2022-12-11T03:32:20;50114.91;;;-146.63;94.70
62462;BME280;48511;38.664;-9.202;2022-12-11T03:34:31;50089.25;;;-146.63;94.76
62462;BME280;48511;38.664;-9.202;2022-12-11T03:36:35;50120.81;;;-146.63;94.02
62462;BME280;48511;38.664;-9.202;2022-12-11T03:39:02;50089.25;;;-146.63;93.96
62462;BME280;48511;38.664;-9.202;2022-12-11T03:41:03;50114.91;;;-146.63;93.36
62462;BME280;48511;38.664;-9.202;2022-12-11T03:43:06;50087.28;;;-146.63;93.13
62462;BME280;48511;38.664;-9.202;2022-12-11T03:45:07;50116.88;;;-146.63;93.21
62462;BME280;48511;38.664;-9.202;2022-12-11T03:47:09;50124.78;;;-146.63;93.19
62462;BME280;48511;38.664;-9.202;2022-12-11T03:49:20;50099.09;;;-146.63;93.28
62462;BME280;48511;38.664;-9.202;2022-12-11T03:51:22;50081.34;;;-146.63;92.95
62462;BME280;48511;38.664;-9.202;2022-12-11T03:53:25;50097.13;;;-146.63;92.63
62462;BME280;48511;38.664;-9.202;2022-12-11T03:55:27;50107.00;;;-146.63;92.75
62462;BME280;48511;38.664;-9.202;2022-12-11T03:57:33;50107.00;;;-146.63;92.66
62462;BME280;48511;38.664;-9.202;2022-12-11T03:59:35;50116.88;;;-146.63;92.49
62462;BME280;48511;38.664;-9.202;2022-12-11T04:01:36;50101.09;;;-146.63;92.72
62462;BME280;48511;38.664;-9.202;2022-12-11T04:03:36;50095.16;;;-146.63;92.79
62462;BME280;48511;38.664;-9.202;2022-12-11T04:05:38;50095.16;;;-146.63;92.55
62462;BME280;48511;38.664;-9.202;2022-12-11T04:07:39;50093.19;;;-146.63;92.50
62462;BME280;48511;38.664;-9.202;2022-12-11T04:09:40;50073.44;;;-146.63;92.56
62462;BME280;48511;38.664;-9.202;2022-12-11T04:11:41;50126.75;;;-146.63;92.56
62462;BME280;48511;38.664;-9.202;2022-12-11T04:13:42;50107.00;;;-146.63;92.34
62462;BME280;48511;38.664;-9.202;2022-12-11T04:15:43;50120.81;;;-146.63;92.11
62462;BME280;48511;38.664;-9.202;2022-12-11T04:17:43;50105.03;;;-146.63;92.04
62462;BME280;48511;38.664;-9.202;2022-12-11T04:20:06;50108.97;;;-146.63;91.50
62462;BME280;48511;38.664;-9.202;2022-12-11T04:22:25;50126.75;;;-146.63;91.33
62462;BME280;48511;38.664;-9.202;2022-12-11T04:24:26;50049.78;;;-146.63;91.15
62462;BME280;48511;38.664;-9.202;2022-12-11T04:26:27;50091.22;;;-146.63;91.18
62462;BME280;48511;38.664;-9.202;2022-12-11T04:28:27;50107.00;;;-146.63;91.01
62462;BME280;48511;38.664;-9.202;2022-12-11T04:30:28;50120.81;;;-146.63;90.61
62462;BME280;48511;38.664;-9.202;2022-12-11T04:32:29;50095.16;;;-146.63;90.49
62462;BME280;48511;38.664;-9.202;2022-12-11T04:34:29;50124.78;;;-146.63;90.76
62462;BME280;48511;38.664;-9.202;2022-12-11T04:36:30;50095.16;;;-146.63;90.61
62462;BME280;48511;38.664;-9.202;2022-12-11T04:38:31;50110.94;;;-146.63;90.82
62462;BME280;48511;38.664;-9.202;2022-12-11T04:40:32;50091.22;;;-146.63;90.43
62462;BME280;48511;38.664;-9.202;2022-12-11T04:42:32;50091.22;;;-146.63;90.51
62462;BME280;48511;38.664;-9.202;2022-12-11T04:44:33;50110.94;;;-146.63;90.37
62462;BME280;48511;38.664;-9.202;2022-12-11T04:46:34;50099.09;;;-146.63;90.44
62462;BME280;48511;38.664;-9.202;2022-12-11T04:48:36;50099.09;;;-146.63;90.43
62462;BME280;48511;38.664;-9.202;2022-12-11T04:50:37;50083.31;;;-146.63;90.17
62462;BME280;48511;38.664;-9.202;2022-12-11T04:52:38;50120.81;;;-146.63;90.41
62462;BME280;48511;38.664;-9.202;2022-12-11T04:54:39;50107.00;;;-146.63;90.66
62462;BME280;48511;38.664;-9.202;2022-12-11T04:56:40;50081.34;;;-146.63;90.41
62462;BME280;48511;38.664;-9.202;2022-12-11T04:58:42;50093.19;;;-146.63;90.52
62462;BME280;48511;38.664;-9.202;2022-12-11T05:00:43;50122.78;;;-146.63;90.48
62462;BME280;48511;38.664;-9.202;2022-12-11T05:02:44;50126.75;;;-146.63;90.69
62462;BME280;48511;38.664;-9.202;2022-12-11T05:04:45;50083.31;;;-146.63;90.74
62462;BME280;48511;38.664;-9.202;2022-12-11T05:06:49;50089.25;;;-146.63;90.61
62462;BME280;48511;38.664;-9.202;2022-12-11T05:08:49;50126.75;;;-146.63;90.75
62462;BME280;48511;38.664;-9.202;2022-12-11T05:10:58;50087.28;;;-146.63;90.78
62462;BME280;48511;38.664;-9.202;2022-12-11T05:12:59;50075.44;;;-146.63;90.76
62462;BME280;48511;38.664;-9.202;2022-12-11T05:14:59;50091.22;;;-146.63;91.15
62462;BME280;48511;38.664;-9.202;2022-12-11T05:17:00;50099.09;;;-146.63;91.30
62462;BME280;48511;38.664;-9.202;2022-12-11T05:19:01;50120.81;;;-146.63;91.23
62462;BME280;48511;38.664;-9.202;2022-12-11T05:21:07;50083.31;;;-146.63;91.03
62462;BME280;48511;38.664;-9.202;2022-12-11T05:23:08;50114.91;;;-146.63;90.96
62462;BME280;48511;38.664;-9.202;2022-12-11T05:25:09;50122.78;;;-146.63;90.79
62462;BME280;48511;38.664;-9.202;2022-12-11T05:27:10;50069.50;;;-146.63;90.77
62462;BME280;48511;38.664;-9.202;2022-12-11T05:29:11;50105.03;;;-146.63;90.57
62462;BME280;48511;38.664;-9.202;2022-12-11T05:31:15;50116.88;;;-146.63;90.68
62462;BME280;48511;38.664;-9.202;2022-12-11T05:33:16;50087.28;;;-146.63;90.71
62462;BME280;48511;38.664;-9.202;2022-12-11T05:35:17;50103.06;;;-146.63;90.97
62462;BME280;48511;38.664;-9.202;2022-12-11T05:37:17;50103.06;;;-146.63;90.84
62462;BME280;48511;38.664;-9.202;2022-12-11T05:39:18;50087.28;;;-146.63;90.70
62462;BME280;48511;38.664;-9.202;2022-12-11T05:41:21;50095.16;;;-146.63;90.77
62462;BME280;48511;38.664;-9.202;2022-12-11T05:43:22;50140.56;;;-146.63;90.72
62462;BME280;48511;38.664;-9.202;2022-12-11T05:45:23;50099.09;;;-146.63;90.47
62462;BME280;48511;38.664;-9.202;2022-12-11T05:47:23;50083.31;;;-146.63;90.30
62462;BME280;48511;38.664;-9.202;2022-12-11T05:49:24;50075.44;;;-146.63;90.24
62462;BME280;48511;38.664;-9.202;2022-12-11T05:51:26;50107.00;;;-146.63;90.37
62462;BME280;48511;38.664;-9.202;2022-12-11T05:53:28;50099.09;;;-146.63;90.06
62462;BME280;48511;38.664;-9.202;2022-12-11T05:55:28;50126.75;;;-146.63;89.61
62462;BME280;48511;38.664;-9.202;2022-12-11T05:57:29;50140.56;;;-146.63;89.68
62462;BME280;48511;38.664;-9.202;2022-12-11T05:59:30;50075.44;;;-146.63;89.69
62462;BME280;48511;38.664;-9.202;2022-12-11T06:01:41;50110.94;;;-146.63;89.40
62462;BME280;48511;38.664;-9.202;2022-12-11T06:03:42;50116.88;;;-146.63;89.03
62462;BME280;48511;38.664;-9.202;2022-12-11T06:05:43;50069.50;;;-146.63;88.89
62462;BME280;48511;38.664;-9.202;2022-12-11T06:07:43;50107.00;;;-146.63;88.86
62462;BME280;48511;38.664;-9.202;2022-12-11T06:09:44;50122.78;;;-146.63;88.99
62462;BME280;48511;38.664;-9.202;2022-12-11T06:11:45;50087.28;;;-146.63;88.88
62462;BME280;48511;38.664;-9.202;2022-12-11T06:13:45;50124.78;;;-146.63;88.86
62462;BME280;48511;38.664;-9.202;2022-12-11T06:15:46;50146.47;;;-146.63;88.91
62462;BME280;48511;38.664;-9.202;2022-12-11T06:17:47;50097.13;;;-146.63;88.97
62462;BME280;48511;38.664;-9.202;2022-12-11T06:19:47;50107.00;;;-146.63;88.40
62462;BME280;48511;38.664;-9.202;2022-12-11T06:21:48;50134.63;;;-146.63;88.75
62462;BME280;48511;38.664;-9.202;2022-12-11T06:23:51;50077.41;;;-146.63;88.53
62462;BME280;48511;38.664;-9.202;2022-12-11T06:25:52;50126.75;;;-146.63;88.53
62462;BME280;48511;38.664;-9.202;2022-12-11T06:27:53;50146.47;;;-146.63;88.61
62462;BME280;48511;38.664;-9.202;2022-12-11T06:29:54;50107.00;;;-146.63;88.63
62462;BME280;48511;38.664;-9.202;2022-12-11T06:31:55;50099.09;;;-146.63;88.73
62462;BME280;48511;38.664;-9.202;2022-12-11T06:33:56;50138.59;;;-146.63;89.03
62462;BME280;48511;38.664;-9.202;2022-12-11T06:36:01;50114.91;;;-146.63;89.27
62462;BME280;48511;38.664;-9.202;2022-12-11T06:38:02;50099.09;;;-146.63;89.70
62462;BME280;48511;38.664;-9.202;2022-12-11T06:40:04;50128.72;;;-146.63;89.92
62462;BME280;48511;38.664;-9.202;2022-12-11T06:42:05;50110.94;;;-146.63;90.71
62462;BME280;48511;38.664;-9.202;2022-12-11T06:44:05;50124.78;;;-146.63;90.51
62462;BME280;48511;38.664;-9.202;2022-12-11T06:46:12;50083.31;;;-146.63;90.74
62462;BME280;48511;38.664;-9.202;2022-12-11T06:48:13;50091.22;;;-146.63;90.60
62462;BME280;48511;38.664;-9.202;2022-12-11T06:50:13;50110.94;;;-146.63;90.60
62462;BME280;48511;38.664;-9.202;2022-12-11T06:52:14;50138.59;;;-146.63;90.30
62462;BME280;48511;38.664;-9.202;2022-12-11T06:54:15;50107.00;;;-146.63;90.38
62462;BME280;48511;38.664;-9.202;2022-12-11T06:56:16;50126.75;;;-146.63;90.54
62462;BME280;48511;38.664;-9.202;2022-12-11T06:58:16;50095.16;;;-146.63;90.90
62462;BME280;48511;38.664;-9.202;2022-12-11T07:00:17;50122.78;;;-146.63;90.76
62462;BME280;48511;38.664;-9.202;2022-12-11T07:02:18;50118.84;;;-146.63;90.77
62462;BME280;48511;38.664;-9.202;2022-12-11T07:04:19;50118.84;;;-146.63;91.04
62462;BME280;48511;38.664;-9.202;2022-12-11T07:06:25;50122.78;;;-146.63;91.29
62462;BME280;48511;38.664;-9.202;2022-12-11T07:08:27;50099.09;;;-146.63;91.04
62462;BME280;48511;38.664;-9.202;2022-12-11T07:10:28;50112.94;;;-146.63;91.07
62462;BME280;48511;38.664;-9.202;2022-12-11T07:12:29;50110.94;;;-146.63;90.90
62462;BME280;48511;38.664;-9.202;2022-12-11T07:14:30;50138.59;;;-146.63;90.46
62462;BME280;48511;38.664;-9.202;2022-12-11T07:16:31;50128.72;;;-146.63;90.45
62462;BME280;48511;38.664;-9.202;2022-12-11T07:18:32;50118.84;;;-146.63;90.32
62462;BME280;48511;38.664;-9.202;2022-12-11T07:20:32;50122.78;;;-146.63;90.50
62462;BME280;48511;38.664;-9.202;2022-12-11T07:22:33;50099.09;;;-146.63;90.32
62462;BME280;48511;38.664;-9.202;2022-12-11T07:24:34;50103.06;;;-146.63;90.54
62462;BME280;48511;38.664;-9.202;2022-12-11T07:26:35;50126.75;;;-146.63;90.72
62462;BME280;48511;38.664;-9.202;2022-12-11T07:28:35;50107.00;;;-146.63;90.56
62462;BME280;48511;38.664;-9.202;2022-12-11T07:30:39;50124.78;;;-146.63;90.18
62462;BME280;48511;38.664;-9.202;2022-12-11T07:32:39;50110.94;;;-146.63;90.38
62462;BME280;48511;38.664;-9.202;2022-12-11T07:34:40;50116.88;;;-146.63;90.75
62462;BME280;48511;38.664;-9.202;2022-12-11T07:36:41;50103.06;;;-146.63;90.93
62462;BME280;48511;38.664;-9.202;2022-12-11T07:38:43;50083.31;;;-146.63;91.08
62462;BME280;48511;38.664;-9.202;2022-12-11T07:40:43;50087.28;;;-146.63;91.32
62462;BME280;48511;38.664;-9.202;2022-12-11T07:42:44;50099.09;;;-146.63;91.67
62462;BME280;48511;38.664;-9.202;2022-12-11T07:44:45;50120.81;;;-146.63;91.57
62462;BME280;48511;38.664;-9.202;2022-12-11T07:46:45;50142.53;;;-146.63;91.76
62462;BME280;48511;38.664;-9.202;2022-12-11T07:48:46;50114.91;;;-146.63;91.62
62462;BME280;48511;38.664;-9.202;2022-12-11T07:50:47;50120.81;;;-146.63;91.40
62462;BME280;48511;38.664;-9.202;2022-12-11T07:52:48;50105.03;;;-146.63;91.54
62462;BME280;48511;38.664;-9.202;2022-12-11T07:54:49;50118.84;;;-146.63;91.20
62462;BME280;48511;38.664;-9.202;2022-12-11T07:56:51;50126.75;;;-146.63;91.03
62462;BME280;48511;38.664;-9.202;2022-12-11T07:58:52;50089.25;;;-146.63;90.82
62462;BME280;48511;38.664;-9.202;2022-12-11T08:00:53;50107.00;;;-146.63;90.79
62462;BME280;48511;38.664;-9.202;2022-12-11T08:02:55;50120.81;;;-146.63;90.93
62462;BME280;48511;38.664;-9.202;2022-12-11T08:04:56;50103.06;;;-146.63;91.07
62462;BME280;48511;38.664;-9.202;2022-12-11T08:06:57;50099.09;;;-146.63;91.29
62462;BME280;48511;38.664;-9.202;2022-12-11T08:08:59;50118.84;;;-146.63;91.33
62462;BME280;48511;38.664;-9.202;2022-12-11T08:11:02;50138.59;;;-146.63;91.56
62462;BME280;48511;38.664;-9.202;2022-12-11T08:13:03;50081.34;;;-146.63;91.41
62462;BME280;48511;38.664;-9.202;2022-12-11T08:15:04;50114.91;;;-146.63;91.28
62462;BME280;48511;38.664;-9.202;2022-12-11T08:17:05;50103.06;;;-146.63;90.99
62462;BME280;48511;38.664;-9.202;2022-12-11T08:19:05;50103.06;;;-146.63;90.65
62462;BME280;48511;38.664;-9.202;2022-12-11T08:21:08;50132.66;;;-146.63;90.55
62462;BME280;48511;38.664;-9.202;2022-12-11T08:23:10;50110.94;;;-146.63;90.48
62462;BME280;48511;38.664;-9.202;2022-12-11T08:25:10;50126.75;;;-146.63;90.66
62462;BME280;48511;38.664;-9.202;2022-12-11T08:27:11;50140.56;;;-146.63;90.88
62462;BME280;48511;38.664;-9.202;2022-12-11T08:29:12;50114.91;;;-146.63;90.75
62462;BME280;48511;38.664;-9.202;2022-12-11T08:31:14;50099.09;;;-146.63;90.46
62462;BME280;48511;38.664;-9.202;2022-12-11T08:33:15;50158.31;;;-146.63;90.46
62462;BME280;48511;38.664;-9.202;2022-12-11T08:35:16;50172.16;;;-146.63;89.96
62462;BME280;48511;38.664;-9.202;2022-12-11T08:37:16;50122.78;;;-146.63;89.77
62462;BME280;48511;38.664;-9.202;2022-12-11T08:39:17;50099.09;;;-146.63;89.38
62462;BME280;48511;38.664;-9.202;2022-12-11T08:41:20;50103.06;;;-146.63;89.15
62462;BME280;48511;38.664;-9.202;2022-12-11T08:43:23;50083.31;;;-146.63;89.00
62462;BME280;48511;38.664;-9.202;2022-12-11T08:45:23;50108.97;;;-146.63;88.91
62462;BME280;48511;38.664;-9.202;2022-12-11T08:47:24;50110.94;;;-146.63;88.63
62462;BME280;48511;38.664;-9.202;2022-12-11T08:49:26;50136.63;;;-146.63;88.23
62462;BME280;48511;38.664;-9.202;2022-12-11T08:51:28;50103.06;;;-146.63;88.07
62462;BME280;48511;38.664;-9.202;2022-12-11T08:53:29;50112.94;;;-146.63;88.06
62462;BME280;48511;38.664;-9.202;2022-12-11T08:55:31;50122.78;;;-146.63;88.16
62462;BME280;48511;38.664;-9.202;2022-12-11T08:57:32;50105.03;;;-146.63;87.95
62462;BME280;48511;38.664;-9.202;2022-12-11T08:59:32;50118.84;;;-146.63;87.89
62462;BME280;48511;38.664;-9.202;2022-12-11T09:01:33;50105.03;;;-146.63;87.59
62462;BME280;48511;38.664;-9.202;2022-12-11T09:03:35;50099.09;;;-146.63;87.64
62462;BME280;48511;38.664;-9.202;2022-12-11T09:05:37;50108.97;;;-146.63;87.64
62462;BME280;48511;38.664;-9.202;2022-12-11T09:07:38;50122.78;;;-146.63;87.70
62462;BME280;48511;38.664;-9.202;2022-12-11T09:09:39;50140.56;;;-146.63;87.54
62462;BME280;48511;38.664;-9.202;2022-12-11T09:11:40;50083.31;;;-146.63;87.09
62462;BME280;48511;38.664;-9.202;2022-12-11T09:13:41;50128.72;;;-146.63;86.91
62462;BME280;48511;38.664;-9.202;2022-12-11T09:15:42;50085.28;;;-146.63;86.95
62462;BME280;48511;38.664;-9.202;2022-12-11T09:17:43;50085.28;;;-146.63;86.90
62462;BME280;48511;38.664;-9.202;2022-12-11T09:19:44;50108.97;;;-146.63;86.89
62462;BME280;48511;38.664;-9.202;2022-12-11T09:21:44;50120.81;;;-146.63;86.81
62462;BME280;48511;38.664;-9.202;2022-12-11T09:23:46;50087.28;;;-146.63;86.46
62462;BME280;48511;38.664;-9.202;2022-12-11T09:25:47;50103.06;;;-146.63;86.85
62462;BME280;48511;38.664;-9.202;2022-12-11T09:27:47;50122.78;;;-146.63;86.92
62462;BME280;48511;38.664;-9.202;2022-12-11T09:29:48;50130.69;;;-146.63;86.88
62462;BME280;48511;38.664;-9.202;2022-12-11T09:31:49;50114.91;;;-146.63;86.71
62462;BME280;48511;38.664;-9.202;2022-12-11T09:33:53;50136.63;;;-146.63;86.68
62462;BME280;48511;38.664;-9.202;2022-12-11T09:36:00;50120.81;;;-146.63;86.81
62462;BME280;48511;38.664;-9.202;2022-12-11T09:38:02;50120.81;;;-146.63;86.77
62462;BME280;48511;38.664;-9.202;2022-12-11T09:40:03;50114.91;;;-146.63;86.90
62462;BME280;48511;38.664;-9.202;2022-12-11T09:46:23;50138.59;;;-146.63;86.67
62462;BME280;48511;38.664;-9.202;2022-12-11T09:48:25;50099.09;;;-146.63;86.50
62462;BME280;48511;38.664;-9.202;2022-12-11T09:50:30;50091.22;;;-146.63;86.44
62462;BME280;48511;38.664;-9.202;2022-12-11T09:54:57;50118.84;;;-146.63;86.27
62462;BME280;48511;38.664;-9.202;2022-12-11T09:57:11;50122.78;;;-146.63;86.32
62462;BME280;48511;38.664;-9.202;2022-12-11T09:59:22;50132.66;;;-146.63;86.17
62462;BME280;48511;38.664;-9.202;2022-12-11T10:12:50;50124.78;;;-146.63;85.23
62462;BME280;48511;38.664;-9.202;2022-12-11T10:17:19;50130.69;;;-146.63;85.21
62462;BME280;48511;38.664;-9.202;2022-12-11T10:19:26;50126.75;;;-146.63;84.82
62462;BME280;48511;38.664;-9.202;2022-12-11T10:21:37;50093.19;;;-146.63;84.62
62462;BME280;48511;38.664;-9.202;2022-12-11T10:23:45;50110.94;;;-146.63;84.59
62462;BME280;48511;38.664;-9.202;2022-12-11T10:25:57;50085.28;;;-146.63;84.43
62462;BME280;48511;38.664;-9.202;2022-12-11T10:28:13;50101.09;;;-146.63;84.10
62462;BME280;48511;38.664;-9.202;2022-12-11T10:30:15;50101.09;;;-146.63;83.89
62462;BME280;48511;38.664;-9.202;2022-12-11T10:32:22;50116.88;;;-146.63;83.46
62462;BME280;48511;38.664;-9.202;2022-12-11T10:34:35;50093.19;;;-146.63;82.55
62462;BME280;48511;38.664;-9.202;2022-12-11T10:36:41;50126.75;;;-146.63;82.79
62462;BME280;48511;38.664;-9.202;2022-12-11T10:38:43;50087.28;;;-146.63;82.27
62462;BME280;48511;38.664;-9.202;2022-12-11T10:41:11;50089.25;;;-146.63;81.78
62462;BME280;48511;38.664;-9.202;2022-12-11T10:43:12;50122.78;;;-146.63;81.37
62462;BME280;48511;38.664;-9.202;2022-12-11T10:45:18;50091.22;;;-146.63;80.53
62462;BME280;48511;38.664;-9.202;2022-12-11T10:47:19;50075.44;;;-146.63;80.60
62462;BME280;48511;38.664;-9.202;2022-12-11T10:49:25;50130.69;;;-146.63;80.05
62462;BME280;48511;38.664;-9.202;2022-12-11T10:53:32;50110.94;;;-146.63;79.27
62462;BME280;48511;38.664;-9.202;2022-12-11T10:55:43;50130.69;;;-146.63;78.95
62462;BME280;48511;38.664;-9.202;2022-12-11T10:57:45;50122.78;;;-146.63;78.83